Time;durP1;ratioP1;P1;durP2;ratioP2;P2;SDS_P1;SDS_P2;PMS_P1;PMS_P2;Temp;Humidity;BMP_temperature;BMP_pressure;BME280_temperature;BME280_humidity;BME280_pressure;Samples;Min_cycle;Max_cycle;Signal;HPM_P1;HPM_P2
2023/09/26 00:01:45;;;;;;;3.60;3.30;;;16.60;83.90;;;;;;5072913;28;20483;-57
2023/09/26 00:04:11;;;;;;;3.73;3.33;;;16.60;84.20;;;;;;5073145;28;20440;-57
2023/09/26 00:06:38;;;;;;;5.40;3.27;;;16.60;84.50;;;;;;5072995;28;20448;-57
2023/09/26 00:09:08;;;;;;;10.30;3.53;;;16.70;84.90;;;;;;5072869;28;20473;-57
2023/09/26 00:11:35;;;;;;;4.80;3.83;;;16.60;84.70;;;;;;5072876;28;20453;-57
2023/09/26 00:14:04;;;;;;;4.93;3.60;;;16.70;84.70;;;;;;5072836;28;20440;-57
2023/09/26 00:16:30;;;;;;;9.30;3.40;;;16.70;84.90;;;;;;5072894;28;20449;-57
2023/09/26 00:18:57;;;;;;;6.37;3.60;;;16.60;85.10;;;;;;5072529;28;20440;-57
2023/09/26 00:21:24;;;;;;;5.30;3.27;;;16.60;85.20;;;;;;5072804;28;20445;-57
2023/09/26 00:23:50;;;;;;;4.70;3.23;;;16.70;85.40;;;;;;5072423;28;20473;-58
2023/09/26 00:26:18;;;;;;;4.13;3.50;;;16.60;85.20;;;;;;5072568;28;21082;-57
2023/09/26 00:28:45;;;;;;;4.07;3.20;;;16.50;84.90;;;;;;5072763;28;20448;-57
2023/09/26 00:31:12;;;;;;;5.50;4.00;;;16.50;85.20;;;;;;5072646;28;20451;-57
2023/09/26 00:33:38;;;;;;;5.20;3.63;;;16.50;85.30;;;;;;5072741;28;20443;-57
2023/09/26 00:36:10;;;;;;;4.10;3.30;;;16.50;85.30;;;;;;5072701;28;20451;-57
2023/09/26 00:38:37;;;;;;;5.23;3.57;;;16.50;85.20;;;;;;5072679;28;20453;-57
2023/09/26 00:41:04;;;;;;;3.83;3.47;;;16.40;85.00;;;;;;5072467;28;20935;-57
2023/09/26 00:43:32;;;;;;;5.40;3.23;;;16.40;85.30;;;;;;5072288;28;20523;-57
2023/09/26 00:46:01;;;;;;;5.63;4.80;;;16.40;85.50;;;;;;5072365;28;20786;-57
2023/09/26 00:48:28;;;;;;;3.60;3.30;;;16.30;85.50;;;;;;5074790;28;20445;-57
2023/09/26 00:50:55;;;;;;;8.40;2.97;;;16.30;85.50;;;;;;5076186;28;20471;-57
2023/09/26 00:53:24;;;;;;;8.33;3.70;;;16.30;86.40;;;;;;5076148;28;20436;-57
2023/09/26 00:55:52;;;;;;;5.70;3.77;;;16.20;85.40;;;;;;5076125;28;20451;-57
2023/09/26 00:58:22;;;;;;;5.43;3.40;;;16.20;85.60;;;;;;5075934;28;20452;-57
2023/09/26 01:00:50;;;;;;;6.03;3.90;;;16.20;85.70;;;;;;5075958;28;20461;-57
2023/09/26 01:03:17;;;;;;;4.47;3.20;;;16.10;85.70;;;;;;5075941;28;20895;-57
2023/09/26 01:05:44;;;;;;;4.40;3.00;;;16.10;85.90;;;;;;5076037;28;20452;-57
2023/09/26 01:08:10;;;;;;;6.57;3.50;;;16.10;86.10;;;;;;5075896;28;20441;-57
2023/09/26 01:10:38;;;;;;;4.97;3.40;;;16.10;86.40;;;;;;5075923;28;20473;-57
2023/09/26 01:13:05;;;;;;;5.27;4.00;;;16.10;86.50;;;;;;5075927;28;20920;-57
2023/09/26 01:15:32;;;;;;;7.03;4.20;;;16.00;86.60;;;;;;5075957;28;20506;-57
2023/09/26 01:18:00;;;;;;;4.80;3.40;;;16.00;86.70;;;;;;5075836;28;20477;-57
2023/09/26 01:20:28;;;;;;;3.57;3.17;;;16.00;86.70;;;;;;5075450;28;21010;-57
2023/09/26 01:22:56;;;;;;;9.77;4.40;;;16.00;87.00;;;;;;5075541;28;20480;-57
2023/09/26 01:25:24;;;;;;;4.20;3.67;;;16.00;87.20;;;;;;5075243;28;20456;-57
2023/09/26 01:27:51;;;;;;;3.90;3.50;;;16.00;87.20;;;;;;5075368;28;20448;-56
2023/09/26 01:30:18;;;;;;;6.60;3.83;;;16.00;87.40;;;;;;5075163;28;20461;-57
2023/09/26 01:32:45;;;;;;;5.77;4.10;;;16.00;87.30;;;;;;5075520;28;20491;-57
2023/09/26 01:35:12;;;;;;;4.07;3.70;;;15.90;87.00;;;;;;5075444;28;20448;-57
2023/09/26 01:37:38;;;;;;;5.33;3.77;;;15.90;87.00;;;;;;5075380;28;20445;-56
2023/09/26 01:40:15;;;;;;;6.20;4.37;;;15.90;86.90;;;;;;5075354;28;20472;-57
2023/09/26 01:42:43;;;;;;;6.70;4.47;;;15.90;86.90;;;;;;5075454;28;20491;-57
2023/09/26 01:45:10;;;;;;;6.50;3.70;;;15.80;86.70;;;;;;5075255;28;20816;-57
2023/09/26 01:47:42;;;;;;;5.97;4.90;;;15.80;86.70;;;;;;5075334;28;20444;-57
2023/09/26 01:50:09;;;;;;;5.67;3.80;;;15.80;86.70;;;;;;5075172;28;20472;-57
2023/09/26 01:52:36;;;;;;;5.47;3.83;;;15.80;86.90;;;;;;5075146;28;20440;-57
2023/09/26 01:55:06;;;;;;;7.90;4.33;;;15.70;86.90;;;;;;5075094;28;20482;-57
2023/09/26 01:57:33;;;;;;;6.17;4.03;;;15.70;86.80;;;;;;5074943;28;20441;-57
2023/09/26 02:00:04;;;;;;;6.80;4.23;;;15.70;86.90;;;;;;5074534;28;20530;-57
2023/09/26 02:02:31;;;;;;;4.27;3.80;;;15.70;87.00;;;;;;5074380;28;20522;-57
2023/09/26 02:04:57;;;;;;;5.10;4.40;;;15.60;87.70;;;;;;5074875;28;20444;-57
2023/09/26 02:07:24;;;;;;;5.47;4.10;;;15.60;87.00;;;;;;5074549;28;20935;-57
2023/09/26 02:09:51;;;;;;;5.23;4.47;;;15.60;86.90;;;;;;5074718;28;20492;-57
2023/09/26 02:12:17;;;;;;;4.73;3.73;;;15.60;86.90;;;;;;5074726;28;20440;-58
2023/09/26 02:14:44;;;;;;;5.13;3.77;;;15.60;86.90;;;;;;5074227;28;20445;-56
2023/09/26 02:17:12;;;;;;;6.43;3.60;;;15.50;86.80;;;;;;5074514;28;20445;-57
2023/09/26 02:19:39;;;;;;;5.90;4.37;;;15.50;86.90;;;;;;5074287;28;20468;-57
2023/09/26 02:22:06;;;;;;;7.80;4.10;;;15.50;86.90;;;;;;5074395;28;20456;-57
2023/09/26 02:24:33;;;;;;;6.97;3.80;;;15.50;86.70;;;;;;5074427;28;20822;-57
2023/09/26 02:27:00;;;;;;;5.67;3.90;;;15.50;86.90;;;;;;5074478;28;20445;-57
2023/09/26 02:29:28;;;;;;;5.10;4.60;;;15.40;86.80;;;;;;5074329;28;20469;-57
2023/09/26 02:31:55;;;;;;;6.00;3.87;;;15.40;87.10;;;;;;5074548;28;20448;-57
2023/09/26 02:34:23;;;;;;;8.27;4.77;;;15.40;87.10;;;;;;5074561;28;20453;-57
2023/09/26 02:36:50;;;;;;;6.00;4.50;;;15.40;87.20;;;;;;5074268;28;20445;-57
2023/09/26 02:39:17;;;;;;;10.27;3.57;;;15.40;88.20;;;;;;5074162;28;20464;-57
2023/09/26 02:41:44;;;;;;;6.47;3.87;;;15.40;87.20;;;;;;5074175;28;20451;-57
2023/09/26 02:44:11;;;;;;;5.23;4.33;;;15.30;87.30;;;;;;5073998;28;20476;-56
2023/09/26 02:46:38;;;;;;;5.70;3.67;;;15.30;87.50;;;;;;5073941;28;20957;-57
2023/09/26 02:49:05;;;;;;;8.40;4.23;;;15.30;87.40;;;;;;5074016;28;20490;-57
2023/09/26 02:51:32;;;;;;;4.00;3.60;;;15.30;87.70;;;;;;5073725;28;20961;-57
2023/09/26 02:53:59;;;;;;;5.67;4.27;;;15.20;87.70;;;;;;5073874;28;20851;-56
2023/09/26 02:56:26;;;;;;;4.10;3.70;;;15.30;88.00;;;;;;5073640;28;20957;-57
2023/09/26 02:58:53;;;;;;;6.07;5.07;;;15.30;88.20;;;;;;5073740;28;20444;-57
2023/09/26 03:01:21;;;;;;;7.73;5.50;;;15.20;88.10;;;;;;5073812;28;20445;-57
2023/09/26 03:03:48;;;;;;;7.47;5.63;;;15.20;88.20;;;;;;5073623;28;20476;-57
2023/09/26 03:06:15;;;;;;;7.27;4.77;;;15.20;88.30;;;;;;5081251;28;20452;-57
2023/09/26 03:08:43;;;;;;;5.83;5.17;;;15.20;88.30;;;;;;5093873;28;20455;-57
2023/09/26 03:11:10;;;;;;;5.03;4.53;;;15.20;88.40;;;;;;5093106;28;20439;-57
2023/09/26 03:13:37;;;;;;;7.80;5.20;;;15.10;88.30;;;;;;5093864;28;20448;-57
2023/09/26 03:16:08;;;;;;;6.73;6.03;;;15.10;88.50;;;;;;5093755;28;20439;-57
2023/09/26 03:18:35;;;;;;;6.90;5.60;;;15.10;88.90;;;;;;5093842;28;20435;-57
2023/09/26 03:21:04;;;;;;;6.83;6.03;;;15.10;89.00;;;;;;5093652;28;20468;-57
2023/09/26 03:23:32;;;;;;;8.07;7.20;;;15.10;89.10;;;;;;5093423;28;20483;-57
2023/09/26 03:26:00;;;;;;;8.33;7.00;;;15.10;89.20;;;;;;5093707;28;20420;-57
2023/09/26 03:28:27;;;;;;;7.93;7.23;;;15.10;89.20;;;;;;5093626;28;20447;-57
2023/09/26 03:30:54;;;;;;;7.90;6.23;;;15.10;89.30;;;;;;5093443;28;20467;-57
2023/09/26 03:33:20;;;;;;;10.17;7.80;;;15.10;89.30;;;;;;5093601;28;20436;-57
2023/09/26 03:35:47;;;;;;;9.90;7.60;;;15.00;89.40;;;;;;5093197;28;20824;-57
2023/09/26 03:38:13;;;;;;;8.50;7.70;;;15.10;89.60;;;;;;5093212;28;20956;-57
2023/09/26 03:40:40;;;;;;;11.57;7.87;;;15.00;89.50;;;;;;5093337;28;20830;-57
2023/09/26 03:43:09;;;;;;;8.30;7.50;;;15.00;89.60;;;;;;5093314;28;20512;-57
2023/09/26 03:45:35;;;;;;;10.47;7.93;;;15.00;89.80;;;;;;5093358;28;20444;-57
2023/09/26 03:48:02;;;;;;;9.80;8.33;;;14.90;89.70;;;;;;5093356;28;20446;-57
2023/09/26 03:50:29;;;;;;;13.10;8.37;;;15.00;89.90;;;;;;5093274;28;20459;-57
2023/09/26 03:52:55;;;;;;;8.73;7.40;;;15.00;90.00;;;;;;5093355;28;20440;-57
2023/09/26 03:55:23;;;;;;;10.17;8.50;;;14.90;89.80;;;;;;5093148;28;20450;-57
2023/09/26 03:57:50;;;;;;;8.87;7.80;;;14.90;89.80;;;;;;5093065;28;20818;-57
2023/09/26 04:00:18;;;;;;;9.73;7.43;;;14.90;89.80;;;;;;5093499;28;20470;-57
2023/09/26 04:02:45;;;;;;;9.83;8.30;;;14.90;89.70;;;;;;5093397;28;20476;-57
2023/09/26 04:05:12;;;;;;;9.87;8.87;;;14.90;89.50;;;;;;5093081;28;20929;-57
2023/09/26 04:07:40;;;;;;;11.57;8.10;;;14.80;89.50;;;;;;5093807;28;20446;-57
2023/09/26 04:10:08;;;;;;;8.23;7.43;;;14.80;89.70;;;;;;5093291;28;20530;-57
2023/09/26 04:12:35;;;;;;;11.87;9.07;;;14.80;89.80;;;;;;5093389;28;20893;-57
2023/09/26 04:15:01;;;;;;;9.50;7.73;;;14.80;89.70;;;;;;5093196;28;20455;-56
2023/09/26 04:17:30;;;;;;;11.10;7.60;;;14.80;89.70;;;;;;5093323;28;20451;-57
2023/09/26 04:19:57;;;;;;;11.30;8.13;;;14.80;89.60;;;;;;5093216;28;20490;-57
2023/09/26 04:22:24;;;;;;;10.30;8.70;;;14.80;89.60;;;;;;5095187;28;20448;-57
2023/09/26 04:24:51;;;;;;;10.33;8.30;;;14.80;89.40;;;;;;5096568;28;20541;-57
2023/09/26 04:27:17;;;;;;;10.40;8.20;;;14.70;89.40;;;;;;5097151;28;20435;-57
2023/09/26 04:29:44;;;;;;;11.87;8.40;;;14.70;89.40;;;;;;5097144;28;20456;-57
2023/09/26 04:32:11;;;;;;;11.80;8.20;;;14.70;89.40;;;;;;5097584;28;20443;-57
2023/09/26 04:34:39;;;;;;;10.73;8.90;;;14.70;89.40;;;;;;5097202;28;20513;-57
2023/09/26 04:37:07;;;;;;;10.70;9.57;;;14.60;89.50;;;;;;5096988;28;20450;-57
2023/09/26 04:39:34;;;;;;;12.93;9.33;;;14.70;89.70;;;;;;5096849;28;20468;-57
2023/09/26 04:42:01;;;;;;;10.67;9.60;;;14.60;89.80;;;;;;5096625;28;20497;-57
2023/09/26 04:44:27;;;;;;;9.37;8.47;;;14.70;90.00;;;;;;5096426;28;20501;-56
2023/09/26 04:46:55;;;;;;;11.60;9.40;;;14.60;90.00;;;;;;5096668;28;20439;-57
2023/09/26 04:49:22;;;;;;;12.97;9.10;;;14.60;90.00;;;;;;5096482;28;20476;-57
2023/09/26 04:51:50;;;;;;;9.77;8.83;;;14.60;90.00;;;;;;5096496;28;20450;-57
2023/09/26 04:54:17;;;;;;;10.30;9.20;;;14.60;90.10;;;;;;5096121;28;20941;-57
2023/09/26 04:56:43;;;;;;;10.03;9.03;;;14.60;90.20;;;;;;5096480;28;20448;-57
2023/09/26 04:59:10;;;;;;;9.33;8.43;;;14.50;90.10;;;;;;5096147;28;20460;-57
2023/09/26 05:01:37;;;;;;;13.60;9.43;;;14.50;90.10;;;;;;5096270;28;20444;-57
2023/09/26 05:04:04;;;;;;;10.33;9.33;;;14.50;90.00;;;;;;5095922;28;20533;-57
2023/09/26 05:06:31;;;;;;;15.30;10.37;;;14.50;90.10;;;;;;5096269;28;20903;-57
2023/09/26 05:08:59;;;;;;;11.30;9.83;;;14.40;90.10;;;;;;5096128;28;20444;-57
2023/09/26 05:11:27;;;;;;;10.53;9.50;;;14.40;90.20;;;;;;5096147;28;20448;-57
2023/09/26 05:13:54;;;;;;;12.77;9.97;;;14.40;90.40;;;;;;5096082;28;20443;-56
2023/09/26 05:16:21;;;;;;;12.70;9.63;;;14.40;90.30;;;;;;5093698;28;20462;-57
2023/09/26 05:18:48;;;;;;;14.70;9.40;;;14.40;90.40;;;;;;5082330;28;20798;-56
2023/09/26 05:21:14;;;;;;;10.93;9.83;;;14.30;90.40;;;;;;5085633;28;20483;-56
2023/09/26 05:23:41;;;;;;;10.37;8.77;;;14.30;90.50;;;;;;5088327;28;21007;-57
2023/09/26 05:26:11;;;;;;;16.80;10.00;;;14.30;90.60;;;;;;5093763;28;20448;-56
2023/09/26 05:28:37;;;;;;;10.37;9.30;;;14.40;90.70;;;;;;5093728;28;20443;-57
2023/09/26 05:31:04;;;;;;;14.77;9.63;;;14.40;90.60;;;;;;5095655;28;20443;-56
2023/09/26 05:33:31;;;;;;;10.00;9.00;;;14.40;90.50;;;;;;5094998;28;20440;-57
2023/09/26 05:35:58;;;;;;;8.60;7.80;;;14.40;90.50;;;;;;5076427;28;20472;-56
2023/09/26 05:38:25;;;;;;;10.80;9.47;;;14.30;90.50;;;;;;5075910;28;20437;-57
2023/09/26 05:40:53;;;;;;;12.30;8.40;;;14.40;90.90;;;;;;5075318;28;20510;-57
2023/09/26 05:43:21;;;;;;;10.40;8.90;;;14.40;90.90;;;;;;5080760;28;20444;-57
2023/09/26 05:45:49;;;;;;;9.67;7.63;;;14.40;90.90;;;;;;5082503;28;20445;-57
2023/09/26 05:48:16;;;;;;;9.40;8.50;;;14.40;91.30;;;;;;5074793;28;20978;-57
2023/09/26 05:50:43;;;;;;;13.97;9.43;;;14.40;91.10;;;;;;5075062;28;20468;-57
2023/09/26 05:53:09;;;;;;;11.37;8.07;;;14.40;91.10;;;;;;5075196;28;20449;-57
2023/09/26 05:55:36;;;;;;;9.50;7.60;;;14.40;91.10;;;;;;5081094;28;20448;-56
2023/09/26 05:58:03;;;;;;;8.20;7.10;;;14.50;91.10;;;;;;5093347;28;20459;-56
2023/09/26 06:00:31;;;;;;;8.37;6.80;;;14.50;91.20;;;;;;5095175;28;20466;-56
2023/09/26 06:02:57;;;;;;;9.13;6.80;;;14.50;91.20;;;;;;5094837;28;20937;-56
2023/09/26 06:05:24;;;;;;;9.60;7.40;;;14.50;91.30;;;;;;5095048;28;20483;-57
2023/09/26 06:07:51;;;;;;;8.40;7.60;;;14.50;91.40;;;;;;5094933;28;20443;-57
2023/09/26 06:10:19;;;;;;;8.50;7.43;;;14.50;91.50;;;;;;5094948;28;20470;-57
2023/09/26 06:12:45;;;;;;;12.03;7.70;;;14.60;91.60;;;;;;5094888;28;20455;-57
2023/09/26 06:15:12;;;;;;;10.57;7.57;;;14.60;91.80;;;;;;5095023;28;20810;-57
2023/09/26 06:17:43;;;;;;;9.57;7.83;;;14.60;91.90;;;;;;5094933;28;20493;-57
2023/09/26 06:20:11;;;;;;;13.27;8.23;;;14.70;92.00;;;;;;5094551;28;20975;-57
2023/09/26 06:22:37;;;;;;;9.93;8.27;;;14.70;92.40;;;;;;5094397;28;20497;-57
2023/09/26 06:25:05;;;;;;;9.30;7.73;;;14.70;92.20;;;;;;5094207;28;20868;-56
2023/09/26 06:27:35;;;;;;;14.07;10.07;;;14.80;92.20;;;;;;5094605;28;20447;-57
2023/09/26 06:30:02;;;;;;;11.37;9.90;;;14.70;92.30;;;;;;5094639;28;20468;-57
2023/09/26 06:32:29;;;;;;;12.03;9.97;;;14.80;92.50;;;;;;5094509;28;20451;-57
2023/09/26 06:34:59;;;;;;;17.97;13.03;;;14.80;92.50;;;;;;5094272;28;20938;-57
2023/09/26 06:37:26;;;;;;;12.80;11.47;;;14.80;92.50;;;;;;5094623;28;20471;-57
2023/09/26 06:39:53;;;;;;;12.37;11.07;;;14.80;92.60;;;;;;5094456;28;20460;-57
2023/09/26 06:42:20;;;;;;;13.80;10.57;;;14.90;92.60;;;;;;5094313;28;20451;-57
2023/09/26 06:44:49;;;;;;;12.63;10.43;;;14.90;92.70;;;;;;5093614;28;20560;-57
2023/09/26 06:47:17;;;;;;;12.20;10.33;;;14.90;92.70;;;;;;5094100;28;20504;-56
2023/09/26 06:49:46;;;;;;;14.93;10.17;;;14.90;92.70;;;;;;5093874;28;20848;-57
2023/09/26 06:52:15;;;;;;;15.63;11.03;;;15.00;92.70;;;;;;5093936;28;20847;-56
2023/09/26 06:54:42;;;;;;;13.23;11.57;;;15.00;92.80;;;;;;5094165;28;20526;-57
2023/09/26 06:57:09;;;;;;;16.10;11.60;;;15.10;92.90;;;;;;5094142;28;20448;-57
2023/09/26 06:59:36;;;;;;;11.40;9.53;;;15.10;93.00;;;;;;5094174;28;20551;-57
2023/09/26 07:02:03;;;;;;;15.10;9.97;;;15.10;93.00;;;;;;5094094;28;20440;-56
2023/09/26 07:04:30;;;;;;;12.33;10.07;;;15.20;92.80;;;;;;5093853;28;20510;-57
2023/09/26 07:06:56;;;;;;;13.03;9.63;;;15.30;93.00;;;;;;5094112;28;20436;-57
2023/09/26 07:09:26;;;;;;;11.33;8.70;;;15.40;93.00;;;;;;5093779;28;20486;-56
2023/09/26 07:11:53;;;;;;;11.20;8.13;;;15.50;92.90;;;;;;5093927;28;20454;-57
2023/09/26 07:14:20;;;;;;;12.37;8.83;;;15.50;92.70;;;;;;5093784;28;20494;-56
2023/09/26 07:16:47;;;;;;;14.87;10.37;;;15.60;92.60;;;;;;5093868;28;20436;-57
2023/09/26 07:19:13;;;;;;;14.77;9.90;;;15.70;92.60;;;;;;5093383;28;20984;-57
2023/09/26 07:21:40;;;;;;;13.10;9.87;;;15.80;92.50;;;;;;5093532;28;20455;-57
2023/09/26 07:24:08;;;;;;;11.37;9.57;;;15.90;92.40;;;;;;5093494;28;20491;-57
2023/09/26 07:26:36;;;;;;;14.30;9.67;;;16.00;92.20;;;;;;5093780;28;20793;-57
2023/09/26 07:29:03;;;;;;;11.40;9.23;;;16.10;92.00;;;;;;5093653;28;20459;-57
2023/09/26 07:31:31;;;;;;;11.23;10.00;;;16.20;92.00;;;;;;5093559;28;20805;-57
2023/09/26 07:33:57;;;;;;;12.53;10.20;;;16.30;91.70;;;;;;5093701;28;20443;-57
2023/09/26 07:36:24;;;;;;;13.93;10.10;;;16.40;91.60;;;;;;5093598;28;20455;-57
2023/09/26 07:38:50;;;;;;;10.20;9.10;;;16.50;91.40;;;;;;5093310;28;20439;-57
2023/09/26 07:41:17;;;;;;;11.33;8.07;;;16.60;91.10;;;;;;5093202;28;20968;-57
2023/09/26 07:43:45;;;;;;;13.43;10.00;;;16.70;91.00;;;;;;5093318;28;20444;-56
2023/09/26 07:46:13;;;;;;;11.67;9.73;;;16.80;90.90;;;;;;5093706;28;20451;-57
2023/09/26 07:48:39;;;;;;;13.00;9.30;;;16.90;90.70;;;;;;5093557;28;20443;-57
2023/09/26 07:51:07;;;;;;;16.30;8.93;;;17.10;90.50;;;;;;5093607;28;20446;-57
2023/09/26 07:53:34;;;;;;;14.53;9.60;;;17.20;90.40;;;;;;5093489;28;20511;-57
2023/09/26 07:56:01;;;;;;;11.27;8.03;;;17.30;90.10;;;;;;5093448;28;20447;-57
2023/09/26 07:58:28;;;;;;;11.10;8.40;;;17.40;89.90;;;;;;5097459;28;20806;-57
2023/09/26 08:00:58;;;;;;;10.00;8.10;;;17.60;89.30;;;;;;5097156;28;20823;-57
2023/09/26 08:03:25;;;;;;;15.20;8.80;;;17.70;88.70;;;;;;5097274;28;20913;-57
2023/09/26 08:05:58;;;;;;;16.63;10.10;;;17.80;88.40;;;;;;5097401;28;20659;-57
2023/09/26 08:08:25;;;;;;;14.57;9.10;;;18.00;89.40;;;;;;5097457;28;20420;-57
2023/09/26 08:10:52;;;;;;;10.10;8.17;;;18.10;87.90;;;;;;5097670;28;20463;-57
2023/09/26 08:13:18;;;;;;;14.17;8.50;;;18.20;87.20;;;;;;5097304;28;20450;-57
2023/09/26 08:15:46;;;;;;;14.80;9.30;;;18.30;85.90;;;;;;5097307;28;20444;-57
2023/09/26 08:18:14;;;;;;;11.97;8.47;;;18.30;85.70;;;;;;5097003;28;20938;-58
2023/09/26 08:20:41;;;;;;;8.10;6.50;;;18.40;85.20;;;;;;5097042;28;20463;-57
2023/09/26 08:23:08;;;;;;;13.53;5.87;;;18.40;84.90;;;;;;5096871;28;20964;-58
2023/09/26 08:25:36;;;;;;;8.77;6.57;;;18.50;85.30;;;;;;5096683;28;20488;-58
2023/09/26 08:28:04;;;;;;;7.37;6.27;;;18.60;85.10;;;;;;5097786;28;20452;-58
2023/09/26 08:30:33;;;;;;;8.53;5.83;;;18.70;84.20;;;;;;5096839;28;20467;-57
2023/09/26 08:32:59;;;;;;;9.53;6.60;;;18.80;83.70;;;;;;5097506;28;20447;-58
2023/09/26 08:35:27;;;;;;;6.77;5.80;;;18.90;83.60;;;;;;5081937;28;20457;-57
2023/09/26 08:37:54;;;;;;;9.70;6.87;;;18.90;83.40;;;;;;5076253;28;20820;-58
2023/09/26 08:40:25;;;;;;;6.97;5.33;;;19.00;83.20;;;;;;5076378;28;20461;-57
2023/09/26 08:42:56;;;;;;;6.20;5.30;;;19.10;82.90;;;;;;5076138;28;20487;-57
2023/09/26 08:45:25;;;;;;;10.53;6.43;;;19.20;83.30;;;;;;5076982;28;20495;-58
2023/09/26 08:47:54;;;;;;;9.57;6.13;;;19.30;82.80;;;;;;5076440;28;20445;-58
2023/09/26 08:50:21;;;;;;;8.70;5.30;;;19.30;82.20;;;;;;5076398;28;20480;-58
2023/09/26 08:52:49;;;;;;;6.60;5.57;;;19.40;82.70;;;;;;5076218;28;20444;-58
2023/09/26 08:55:17;;;;;;;7.73;5.83;;;19.40;82.60;;;;;;5076251;28;20442;-58
2023/09/26 08:57:45;;;;;;;7.27;5.50;;;19.50;82.80;;;;;;5076162;28;20449;-58
2023/09/26 09:00:13;;;;;;;13.57;5.20;;;19.60;82.90;;;;;;5076059;28;20464;-58
2023/09/26 09:02:40;;;;;;;6.40;4.90;;;19.70;82.50;;;;;;5076077;28;20472;-57
2023/09/26 09:05:07;;;;;;;6.23;4.53;;;19.80;82.10;;;;;;5075999;28;20480;-56
2023/09/26 09:07:34;;;;;;;6.40;5.00;;;19.90;81.00;;;;;;5075651;28;20808;-56
2023/09/26 09:10:07;;;;;;;6.57;4.77;;;20.00;81.20;;;;;;5075141;28;20457;-56
2023/09/26 09:12:37;;;;;;;5.93;5.00;;;20.10;81.60;;;;;;5075855;28;20451;-56
2023/09/26 09:15:18;;;;;;;7.33;5.10;;;20.20;82.50;;;;;;5075773;28;20463;-56
2023/09/26 09:17:46;;;;;;;6.47;4.40;;;20.30;82.70;;;;;;5075916;28;20432;-56
2023/09/26 09:20:16;;;;;;;7.67;4.13;;;20.40;80.80;;;;;;5075392;28;20974;-56
2023/09/26 09:22:46;;;;;;;5.30;3.43;;;20.60;78.80;;;;;;5075674;28;20488;-56
2023/09/26 09:25:14;;;;;;;8.27;3.80;;;20.70;74.60;;;;;;5075294;28;20512;-56
2023/09/26 09:27:43;;;;;;;3.67;3.37;;;20.80;75.20;;;;;;5075653;28;20470;-56
2023/09/26 09:30:12;;;;;;;3.70;3.20;;;21.00;76.40;;;;;;5075314;28;20978;-56
2023/09/26 09:32:41;;;;;;;7.23;3.43;;;21.20;76.10;;;;;;5075573;28;20448;-56
2023/09/26 09:35:10;;;;;;;8.53;4.23;;;21.40;75.40;;;;;;5075475;28;20447;-56
2023/09/26 09:37:37;;;;;;;5.60;4.67;;;21.70;72.70;;;;;;5075523;28;20441;-56
2023/09/26 09:40:04;;;;;;;5.47;4.30;;;21.90;73.20;;;;;;5075327;28;20518;-56
2023/09/26 09:42:33;;;;;;;11.77;3.97;;;22.20;71.90;;;;;;5075364;28;20445;-56
2023/09/26 09:44:59;;;;;;;6.43;4.60;;;22.50;74.30;;;;;;5074867;28;20476;-56
2023/09/26 09:47:30;;;;;;;7.00;3.90;;;22.80;67.90;;;;;;5075289;28;20564;-56
2023/09/26 09:50:01;;;;;;;5.90;4.67;;;23.10;67.80;;;;;;5074922;28;20982;-56
2023/09/26 09:52:30;;;;;;;5.53;4.17;;;23.50;66.30;;;;;;5075178;28;20433;-56
2023/09/26 09:54:58;;;;;;;4.97;4.00;;;23.90;67.30;;;;;;5075175;28;20441;-56
2023/09/26 09:57:29;;;;;;;7.20;4.73;;;24.30;65.50;;;;;;5074795;28;20808;-56
2023/09/26 09:59:58;;;;;;;4.60;2.90;;;24.80;64.60;;;;;;5075014;28;20464;-56
2023/09/26 10:02:25;;;;;;;6.53;2.60;;;25.20;59.30;;;;;;5074904;28;20437;-56
2023/09/26 10:04:55;;;;;;;6.00;4.03;;;25.70;56.90;;;;;;5074885;28;20487;-56
2023/09/26 10:07:23;;;;;;;4.73;3.20;;;26.10;56.40;;;;;;5074881;28;20483;-56
2023/09/26 10:09:51;;;;;;;4.03;3.07;;;26.50;55.30;;;;;;5074720;28;20467;-56
2023/09/26 10:12:18;;;;;;;6.07;3.33;;;26.90;54.40;;;;;;5074697;28;20441;-56
2023/09/26 10:14:44;;;;;;;5.10;3.03;;;27.40;52.30;;;;;;5074420;28;20939;-56
2023/09/26 10:17:14;;;;;;;3.43;3.00;;;27.90;50.40;;;;;;5074644;28;20510;-56
2023/09/26 10:19:42;;;;;;;7.07;2.70;;;28.30;46.40;;;;;;5074297;28;20508;-56
2023/09/26 10:22:15;;;;;;;5.37;2.70;;;28.70;45.00;;;;;;5074552;28;20449;-56
2023/09/26 10:24:47;;;;;;;5.03;2.77;;;29.20;45.90;;;;;;5074179;28;20460;-56
2023/09/26 10:27:14;;;;;;;7.07;2.87;;;29.80;45.50;;;;;;5074488;28;20479;-56
2023/09/26 10:29:44;;;;;;;3.47;2.17;;;30.30;43.70;;;;;;5074422;28;20494;-56
2023/09/26 10:32:12;;;;;;;3.93;3.13;;;31.00;39.90;;;;;;5074387;28;20428;-56
2023/09/26 10:34:46;;;;;;;3.80;2.63;;;31.50;38.40;;;;;;5074448;28;20448;-57
2023/09/26 10:37:16;;;;;;;3.63;3.00;;;32.10;37.00;;;;;;5074435;28;20452;-56
2023/09/26 10:39:44;;;;;;;5.93;3.20;;;32.50;35.90;;;;;;5074427;28;20898;-57
2023/09/26 10:42:12;;;;;;;5.70;3.20;;;32.80;33.30;;;;;;5074308;28;20476;-57
2023/09/26 10:44:39;;;;;;;6.23;3.07;;;33.10;32.50;;;;;;5073851;28;20475;-56
2023/09/26 10:47:06;;;;;;;6.27;3.00;;;33.50;31.90;;;;;;5074367;28;20472;-57
2023/09/26 10:49:33;;;;;;;5.00;2.83;;;33.90;32.30;;;;;;5074138;28;20460;-57
2023/09/26 10:52:02;;;;;;;2.67;2.43;;;34.20;31.10;;;;;;5074069;28;20458;-57
2023/09/26 10:54:32;;;;;;;2.70;2.50;;;34.50;30.20;;;;;;5073976;28;20474;-56
2023/09/26 10:57:00;;;;;;;7.50;2.70;;;34.80;29.50;;;;;;5074011;28;20516;-57
2023/09/26 10:59:28;;;;;;;3.90;3.10;;;35.20;29.10;;;;;;5074014;28;20467;-57
2023/09/26 11:01:59;;;;;;;3.40;2.80;;;35.40;28.10;;;;;;5073711;28;20463;-57
2023/09/26 11:04:27;;;;;;;3.60;3.30;;;35.60;28.70;;;;;;5073585;28;20206;-57
2023/09/26 11:06:55;;;;;;;4.03;2.90;;;35.70;28.50;;;;;;5073795;28;20222;-57
2023/09/26 11:09:23;;;;;;;3.20;2.87;;;35.80;28.00;;;;;;5073951;28;20256;-56
2023/09/26 11:11:49;;;;;;;5.40;3.10;;;36.00;28.40;;;;;;5073999;28;20209;-56
2023/09/26 11:14:17;;;;;;;3.30;2.70;;;36.20;27.90;;;;;;5073714;28;20202;-56
2023/09/26 11:16:44;;;;;;;3.55;2.95;;;36.60;27.60;;;;;;5073827;28;20227;-56
2023/09/26 11:19:10;;;;;;;2.10;1.90;;;37.10;27.70;;;;;;5074493;28;20233;-56
2023/09/26 11:21:37;;;;;;;4.10;2.80;;;37.50;27.10;;;;;;5073667;28;20205;-56
2023/09/26 11:24:18;;;;;;;5.25;2.72;;;37.90;26.30;;;;;;5073451;28;20248;-56
2023/09/26 11:26:48;;;;;;;3.90;2.30;;;38.30;26.30;;;;;;5073635;28;20245;-56
2023/09/26 11:29:15;;;;;;;3.25;2.67;;;38.70;26.70;;;;;;5074330;28;20225;-56
2023/09/26 11:31:43;;;;;;;2.95;1.92;;;39.10;25.00;;;;;;5072875;28;20213;-56
2023/09/26 11:34:10;;;;;;;3.95;2.53;;;39.50;25.30;;;;;;5073326;28;20202;-56
2023/09/26 11:36:39;;;;;;;5.88;2.28;;;39.90;23.40;;;;;;5073546;28;20568;-57
2023/09/26 11:39:08;;;;;;;2.63;2.40;;;40.00;23.20;;;;;;5073022;28;20635;-56
2023/09/26 11:41:35;;;;;;;3.20;2.72;;;40.20;22.30;;;;;;5073383;28;20206;-56
2023/09/26 11:44:10;;;;;;;3.55;2.45;;;40.00;22.00;;;;;;5073384;28;20206;-56
2023/09/26 11:46:47;;;;;;;3.22;2.25;;;40.10;22.60;;;;;;5073489;28;20232;-57
2023/09/26 11:49:15;;;;;;;3.75;2.83;;;40.40;23.70;;;;;;5073332;28;20308;-57
2023/09/26 11:51:43;;;;;;;3.28;1.77;;;40.80;23.80;;;;;;5073474;28;20212;-57
2023/09/26 11:54:12;;;;;;;4.07;2.05;;;41.20;22.90;;;;;;5073234;28;20698;-57
2023/09/26 11:56:44;;;;;;;2.33;1.90;;;41.50;20.60;;;;;;5073424;28;20221;-57
2023/09/26 11:59:12;;;;;;;3.40;2.00;;;41.50;20.40;;;;;;5073335;28;20275;-57
2023/09/26 12:01:41;;;;;;;2.13;1.92;;;41.70;19.90;;;;;;5072973;28;20225;-57
2023/09/26 12:04:11;;;;;;;3.05;2.00;;;41.80;19.00;;;;;;5073311;28;20223;-57
2023/09/26 12:06:38;;;;;;;2.42;1.77;;;41.80;19.30;;;;;;5073112;28;20267;-57
2023/09/26 12:09:09;;;;;;;1.95;1.80;;;42.10;19.70;;;;;;5073007;28;20304;-57
2023/09/26 12:11:36;;;;;;;2.30;2.10;;;42.50;19.80;;;;;;5073177;28;20252;-57
2023/09/26 12:14:02;;;;;;;2.88;1.92;;;42.90;19.60;;;;;;5072917;28;20225;-57
2023/09/26 12:16:31;;;;;;;2.20;2.00;;;43.20;19.00;;;;;;5073076;28;20209;-57
2023/09/26 12:18:57;;;;;;;2.30;1.67;;;43.50;18.50;;;;;;5073020;28;20198;-57
2023/09/26 12:21:24;;;;;;;2.20;2.00;;;43.60;18.40;;;;;;5072948;28;20613;-57
2023/09/26 12:23:51;;;;;;;2.90;1.90;;;43.80;18.40;;;;;;5072531;28;20637;-57
2023/09/26 12:26:17;;;;;;;2.40;2.05;;;43.80;18.30;;;;;;5072607;28;20597;-57
2023/09/26 12:28:44;;;;;;;2.38;1.83;;;43.90;18.70;;;;;;5072489;28;20714;-57
2023/09/26 12:31:11;;;;;;;3.33;1.80;;;43.90;18.30;;;;;;5072614;28;20579;-57
2023/09/26 12:33:39;;;;;;;2.03;1.80;;;43.90;18.70;;;;;;5072915;28;20201;-57
2023/09/26 12:36:05;;;;;;;2.20;1.77;;;44.10;18.30;;;;;;5072818;28;20201;-57
2023/09/26 12:38:32;;;;;;;2.83;1.90;;;44.30;18.60;;;;;;5072755;28;20616;-57
2023/09/26 12:41:00;;;;;;;3.58;1.90;;;44.50;18.40;;;;;;5072739;28;20225;-57
2023/09/26 12:43:27;;;;;;;3.05;1.73;;;44.70;18.30;;;;;;5074726;28;20209;-57
2023/09/26 12:45:53;;;;;;;2.40;2.13;;;44.80;16.40;;;;;;5076444;28;20589;-57